AXI70 KHOU-KABQ
Flight info
| Callsign | AXI70 |
|---|---|
| Flight time | N/A |
| Altitude | 40000 |
| Route | RETYR8 JCT SJT RECKN COLTR4 |
| Aircraft | CL60/M-SADE3FGHIJ3J4J7P2RWXY/HB1D1 |
Departure
| Time | 2026-04-30 21:32 |
|---|---|
| Airport | William P. Hobby Airport (KHOU) |
Arrival
| Time | N/A |
|---|---|
| Airport | Albuquerque International Sunport (KABQ) |
| Time | Latitude | Longitude | Altitude | Speed | Heading |
|---|---|---|---|---|---|
| 2026-04-30 21:01 | 29.64646 | -95.27377 | 47 ft | 0 kts | 220° |
| 2026-04-30 21:20 | 29.64645 | -95.27377 | 48 ft | 0 kts | 221° |
| 2026-04-30 21:23 | 29.64639 | -95.27383 | 47 ft | 5 kts | 221° |
| 2026-04-30 21:24 | 29.64619 | -95.27396 | 48 ft | 2 kts | 185° |
| 2026-04-30 21:24 | 29.64607 | -95.27396 | 48 ft | 0 kts | 178° |
| 2026-04-30 21:26 | 29.64593 | -95.27396 | 48 ft | 3 kts | 178° |
| 2026-04-30 21:26 | 29.64561 | -95.27419 | 48 ft | 7 kts | 248° |
| 2026-04-30 21:27 | 29.64610 | -95.27519 | 48 ft | 7 kts | 248° |
| 2026-04-30 21:27 | 29.64556 | -95.27583 | 48 ft | 14 kts | 223° |
| 2026-04-30 21:27 | 29.64479 | -95.27668 | 48 ft | 16 kts | 225° |
| 2026-04-30 21:28 | 29.64282 | -95.27849 | 49 ft | 12 kts | 213° |
| 2026-04-30 21:28 | 29.64206 | -95.27922 | 49 ft | 16 kts | 223° |
| 2026-04-30 21:28 | 29.64017 | -95.28130 | 50 ft | 18 kts | 224° |
| 2026-04-30 21:29 | 29.63920 | -95.28241 | 50 ft | 20 kts | 223° |
| 2026-04-30 21:29 | 29.63600 | -95.28332 | 50 ft | 14 kts | 259° |
| 2026-04-30 21:30 | 29.63598 | -95.28499 | 50 ft | 9 kts | 285° |
| 2026-04-30 21:31 | 29.63913 | -95.28530 | 50 ft | 7 kts | 52° |
| 2026-04-30 21:31 | 29.64655 | -95.27718 | 59 ft | 161 kts | 48° |
| 2026-04-30 21:32 | 29.66626 | -95.25754 | 1612 ft | 210 kts | 25° |
| 2026-04-30 21:32 | 29.68184 | -95.25576 | 2374 ft | 248 kts | 345° |
| 2026-04-30 21:32 | 29.69640 | -95.26657 | 3643 ft | 261 kts | 310° |
| 2026-04-30 21:32 | 29.70469 | -95.28397 | 5113 ft | 256 kts | 293° |
| 2026-04-30 21:33 | 29.71116 | -95.30306 | 6262 ft | 265 kts | 290° |
| 2026-04-30 21:33 | 29.72190 | -95.34470 | 8558 ft | 282 kts | 284° |
| 2026-04-30 21:33 | 29.72728 | -95.36610 | 9770 ft | 286 kts | 283° |
| 2026-04-30 21:34 | 29.73269 | -95.38754 | 11109 ft | 284 kts | 282° |
| 2026-04-30 21:34 | 29.74344 | -95.43016 | 13768 ft | 276 kts | 281° |
| 2026-04-30 21:34 | 29.74876 | -95.45147 | 14451 ft | 294 kts | 282° |
| 2026-04-30 21:35 | 29.75264 | -95.46709 | 14761 ft | 310 kts | 282° |
| 2026-04-30 21:35 | 29.76086 | -95.49995 | 15702 ft | 328 kts | 283° |
| 2026-04-30 21:35 | 29.76714 | -95.52490 | 16703 ft | 330 kts | 283° |
| 2026-04-30 21:35 | 29.77344 | -95.54991 | 17749 ft | 329 kts | 283° |
| 2026-04-30 21:36 | 29.77983 | -95.57535 | 18598 ft | 333 kts | 283° |
| 2026-04-30 21:36 | 29.78634 | -95.60127 | 19389 ft | 338 kts | 284° |
| 2026-04-30 21:37 | 29.80623 | -95.68072 | 21517 ft | 353 kts | 285° |
| 2026-04-30 21:37 | 29.81301 | -95.70782 | 22175 ft | 358 kts | 285° |
| 2026-04-30 21:37 | 29.81997 | -95.73566 | 22827 ft | 362 kts | 285° |
| 2026-04-30 21:37 | 29.82688 | -95.76332 | 23503 ft | 366 kts | 285° |
| 2026-04-30 21:38 | 29.83394 | -95.79163 | 24205 ft | 368 kts | 285° |
| 2026-04-30 21:38 | 29.84099 | -95.81992 | 24865 ft | 371 kts | 285° |
| 2026-04-30 21:38 | 29.84806 | -95.84835 | 25509 ft | 373 kts | 285° |
| 2026-04-30 21:38 | 29.85518 | -95.87701 | 26164 ft | 375 kts | 285° |
| 2026-04-30 21:39 | 29.86237 | -95.90596 | 26730 ft | 378 kts | 285° |
| 2026-04-30 21:39 | 29.86955 | -95.93488 | 27305 ft | 380 kts | 285° |
| 2026-04-30 21:39 | 29.87680 | -95.96416 | 27850 ft | 382 kts | 285° |
| 2026-04-30 21:39 | 29.88421 | -95.99406 | 28355 ft | 385 kts | 285° |
| 2026-04-30 21:40 | 29.89157 | -96.02387 | 28847 ft | 388 kts | 285° |
| 2026-04-30 21:40 | 29.89901 | -96.05399 | 29304 ft | 391 kts | 285° |
| 2026-04-30 21:40 | 29.90623 | -96.08327 | 29727 ft | 394 kts | 285° |
| 2026-04-30 21:40 | 29.91384 | -96.11412 | 30127 ft | 397 kts | 285° |
| 2026-04-30 21:41 | 29.92150 | -96.14526 | 30527 ft | 400 kts | 285° |
| 2026-04-30 21:41 | 29.92932 | -96.17704 | 30915 ft | 402 kts | 285° |
| 2026-04-30 21:41 | 29.93670 | -96.20847 | 31231 ft | 405 kts | 282° |
| 2026-04-30 21:41 | 29.94234 | -96.24191 | 31523 ft | 408 kts | 280° |
| 2026-04-30 21:42 | 29.94745 | -96.27445 | 31850 ft | 410 kts | 280° |
| 2026-04-30 21:42 | 29.95257 | -96.30688 | 32204 ft | 410 kts | 280° |
| 2026-04-30 21:42 | 29.95766 | -96.33921 | 32499 ft | 412 kts | 280° |
| 2026-04-30 21:42 | 29.96280 | -96.37199 | 32716 ft | 415 kts | 281° |
| 2026-04-30 21:43 | 29.96816 | -96.40614 | 32973 ft | 416 kts | 280° |
| 2026-04-30 21:43 | 29.97156 | -96.42782 | 33149 ft | 416 kts | 280° |
| 2026-04-30 21:43 | 29.97841 | -96.47166 | 33520 ft | 415 kts | 280° |
| 2026-04-30 21:43 | 29.98348 | -96.50413 | 34038 ft | 411 kts | 280° |
| 2026-04-30 21:44 | 29.98846 | -96.53605 | 34662 ft | 405 kts | 280° |
| 2026-04-30 21:44 | 29.99334 | -96.56739 | 35237 ft | 394 kts | 279° |
| 2026-04-30 21:44 | 29.99818 | -96.59878 | 35552 ft | 393 kts | 279° |
| 2026-04-30 21:44 | 30.00287 | -96.62932 | 35858 ft | 393 kts | 279° |
| 2026-04-30 21:45 | 30.00767 | -96.66058 | 36183 ft | 393 kts | 279° |
| 2026-04-30 21:45 | 30.01246 | -96.69181 | 36535 ft | 392 kts | 279° |
| 2026-04-30 21:45 | 30.01725 | -96.72305 | 36956 ft | 390 kts | 279° |
| 2026-04-30 21:45 | 30.02189 | -96.75346 | 37308 ft | 388 kts | 279° |
| 2026-04-30 21:46 | 30.02658 | -96.78417 | 37635 ft | 387 kts | 279° |
| 2026-04-30 21:46 | 30.03122 | -96.81462 | 37940 ft | 386 kts | 279° |
| 2026-04-30 21:46 | 30.03585 | -96.84512 | 38191 ft | 386 kts | 279° |
| 2026-04-30 21:46 | 30.04042 | -96.87523 | 38462 ft | 385 kts | 278° |
| 2026-04-30 21:47 | 30.04500 | -96.90541 | 38697 ft | 384 kts | 278° |
| 2026-04-30 21:47 | 30.04960 | -96.93580 | 38955 ft | 384 kts | 278° |
| 2026-04-30 21:47 | 30.05415 | -96.96596 | 39153 ft | 383 kts | 278° |
| 2026-04-30 21:47 | 30.05873 | -96.99628 | 39356 ft | 383 kts | 278° |
| 2026-04-30 21:48 | 30.06330 | -97.02663 | 39581 ft | 382 kts | 279° |
| 2026-04-30 21:48 | 30.06784 | -97.05682 | 39777 ft | 382 kts | 278° |
| 2026-04-30 21:48 | 30.07238 | -97.08708 | 39901 ft | 382 kts | 278° |
| 2026-04-30 21:48 | 30.07692 | -97.11736 | 39897 ft | 384 kts | 278° |
| 2026-04-30 21:49 | 30.08598 | -97.17796 | 39893 ft | 385 kts | 278° |
| 2026-04-30 21:49 | 30.09499 | -97.23845 | 39891 ft | 383 kts | 279° |
| 2026-04-30 21:50 | 30.10402 | -97.29919 | 39890 ft | 381 kts | 279° |
| 2026-04-30 21:50 | 30.11291 | -97.35927 | 39895 ft | 380 kts | 278° |
| 2026-04-30 21:51 | 30.12178 | -97.41940 | 39892 ft | 380 kts | 278° |
| 2026-04-30 21:51 | 30.13062 | -97.47950 | 39889 ft | 380 kts | 278° |
| 2026-04-30 21:52 | 30.13942 | -97.53950 | 39902 ft | 380 kts | 278° |
| 2026-04-30 21:52 | 30.14821 | -97.59968 | 39902 ft | 380 kts | 278° |
| 2026-04-30 21:53 | 30.15701 | -97.66013 | 39905 ft | 381 kts | 278° |
| 2026-04-30 21:53 | 30.16583 | -97.72092 | 39909 ft | 381 kts | 278° |
| 2026-04-30 21:54 | 30.17655 | -97.78117 | 39906 ft | 381 kts | 281° |
| 2026-04-30 21:54 | 30.18887 | -97.84043 | 39910 ft | 380 kts | 281° |
| 2026-04-30 21:55 | 30.20117 | -97.89990 | 39913 ft | 379 kts | 281° |
| 2026-04-30 21:55 | 30.21338 | -97.95913 | 39916 ft | 379 kts | 281° |
| 2026-04-30 21:56 | 30.22556 | -98.01835 | 39905 ft | 379 kts | 281° |
| 2026-04-30 21:56 | 30.23771 | -98.07759 | 39910 ft | 378 kts | 281° |
| 2026-04-30 21:57 | 30.24980 | -98.13674 | 39912 ft | 379 kts | 281° |
| 2026-04-30 21:57 | 30.26193 | -98.19624 | 39912 ft | 379 kts | 281° |
| 2026-04-30 21:58 | 30.27395 | -98.25532 | 39911 ft | 378 kts | 281° |
| 2026-04-30 21:58 | 30.28598 | -98.31464 | 39911 ft | 377 kts | 281° |
| 2026-04-30 21:59 | 30.29810 | -98.37421 | 39915 ft | 378 kts | 282° |
| 2026-04-30 22:00 | 30.31702 | -98.46287 | 39916 ft | 378 kts | 281° |
| 2026-04-30 22:00 | 30.33585 | -98.55135 | 39920 ft | 377 kts | 281° |
| 2026-04-30 22:01 | 30.34833 | -98.61015 | 39922 ft | 377 kts | 281° |
| 2026-04-30 22:01 | 30.36092 | -98.66966 | 39929 ft | 378 kts | 281° |
| 2026-04-30 22:02 | 30.37357 | -98.72961 | 39934 ft | 377 kts | 281° |
| 2026-04-30 22:02 | 30.38598 | -98.78855 | 39936 ft | 377 kts | 281° |
| 2026-04-30 22:03 | 30.39832 | -98.84728 | 39937 ft | 376 kts | 281° |
| 2026-04-30 22:03 | 30.41069 | -98.90628 | 39941 ft | 377 kts | 281° |
| 2026-04-30 22:04 | 30.42293 | -98.96485 | 39942 ft | 376 kts | 281° |
| 2026-04-30 22:05 | 30.44142 | -99.05353 | 39941 ft | 376 kts | 280° |
| 2026-04-30 22:05 | 30.45363 | -99.11232 | 39938 ft | 376 kts | 281° |
| 2026-04-30 22:06 | 30.46582 | -99.17114 | 39936 ft | 377 kts | 281° |
| 2026-04-30 22:06 | 30.48377 | -99.25787 | 39930 ft | 376 kts | 280° |
| 2026-04-30 22:07 | 30.49586 | -99.31657 | 39930 ft | 376 kts | 281° |
| 2026-04-30 22:07 | 30.50800 | -99.37561 | 39935 ft | 376 kts | 280° |
| 2026-04-30 22:08 | 30.51969 | -99.43264 | 39935 ft | 376 kts | 281° |
| 2026-04-30 22:08 | 30.53150 | -99.49040 | 39937 ft | 376 kts | 281° |
| 2026-04-30 22:09 | 30.54354 | -99.54937 | 39937 ft | 377 kts | 280° |
| 2026-04-30 22:09 | 30.55540 | -99.60761 | 39935 ft | 377 kts | 280° |
| 2026-04-30 22:10 | 30.56742 | -99.66679 | 39931 ft | 377 kts | 279° |
| 2026-04-30 22:10 | 30.57890 | -99.72348 | 39931 ft | 378 kts | 279° |
| 2026-04-30 22:11 | 30.59647 | -99.78143 | 39933 ft | 384 kts | 291° |
| 2026-04-30 22:11 | 30.60981 | -99.80796 | 39931 ft | 389 kts | 297° |
| 2026-04-30 22:12 | 30.64550 | -99.85475 | 39938 ft | 403 kts | 311° |
| 2026-04-30 22:12 | 30.69160 | -99.89371 | 39941 ft | 410 kts | 315° |
| 2026-04-30 22:13 | 30.73835 | -99.93179 | 39941 ft | 410 kts | 315° |
| 2026-04-30 22:13 | 30.78500 | -99.96983 | 39945 ft | 411 kts | 316° |
| 2026-04-30 22:14 | 30.83181 | -100.00804 | 39944 ft | 410 kts | 316° |
| 2026-04-30 22:14 | 30.87868 | -100.04636 | 39940 ft | 410 kts | 315° |
| 2026-04-30 22:15 | 30.92548 | -100.08466 | 39942 ft | 411 kts | 316° |
| 2026-04-30 22:15 | 30.97238 | -100.12310 | 39940 ft | 411 kts | 315° |
| 2026-04-30 22:16 | 31.01850 | -100.16093 | 39942 ft | 410 kts | 315° |
| 2026-04-30 22:17 | 31.11153 | -100.23739 | 39954 ft | 408 kts | 315° |
| 2026-04-30 22:17 | 31.18117 | -100.29475 | 39955 ft | 408 kts | 315° |
| 2026-04-30 22:18 | 31.25070 | -100.35214 | 39952 ft | 407 kts | 315° |
| 2026-04-30 22:19 | 31.31975 | -100.40923 | 39931 ft | 406 kts | 315° |
| 2026-04-30 22:20 | 31.38842 | -100.46722 | 39933 ft | 402 kts | 312° |
| 2026-04-30 22:20 | 31.45376 | -100.52826 | 39931 ft | 400 kts | 312° |
| 2026-04-30 22:21 | 31.49727 | -100.56894 | 39944 ft | 400 kts | 312° |
| 2026-04-30 22:21 | 31.54065 | -100.60953 | 39958 ft | 399 kts | 311° |
| 2026-04-30 22:22 | 31.58432 | -100.65045 | 39970 ft | 399 kts | 311° |
| 2026-04-30 22:22 | 31.62803 | -100.69144 | 39966 ft | 400 kts | 311° |
| 2026-04-30 22:23 | 31.67128 | -100.73205 | 39964 ft | 399 kts | 311° |
| 2026-04-30 22:23 | 31.71509 | -100.77322 | 39966 ft | 399 kts | 311° |
| 2026-04-30 22:24 | 31.75768 | -100.81330 | 39973 ft | 400 kts | 311° |
| 2026-04-30 22:24 | 31.80129 | -100.85438 | 39970 ft | 399 kts | 311° |
| 2026-04-30 22:25 | 31.84450 | -100.89514 | 39972 ft | 399 kts | 311° |
| 2026-04-30 22:25 | 31.88775 | -100.93598 | 39974 ft | 399 kts | 311° |
| 2026-04-30 22:26 | 31.95274 | -100.99745 | 39978 ft | 399 kts | 311° |
| 2026-04-30 22:27 | 31.99588 | -101.03832 | 39982 ft | 400 kts | 311° |
| 2026-04-30 22:27 | 32.06073 | -101.09984 | 39979 ft | 399 kts | 311° |
| 2026-04-30 22:28 | 32.12572 | -101.16161 | 39976 ft | 397 kts | 311° |
| 2026-04-30 22:29 | 32.21149 | -101.24330 | 39980 ft | 396 kts | 311° |
| 2026-04-30 22:31 | 32.36150 | -101.38669 | 39991 ft | 396 kts | 311° |
| 2026-04-30 22:32 | 32.46818 | -101.48906 | 39989 ft | 396 kts | 311° |
| 2026-04-30 22:33 | 32.57455 | -101.59141 | 40004 ft | 396 kts | 310° |
| 2026-04-30 22:35 | 32.68142 | -101.69460 | 40005 ft | 397 kts | 310° |
| 2026-04-30 22:36 | 32.78791 | -101.79771 | 40018 ft | 393 kts | 309° |
| 2026-04-30 22:37 | 32.87104 | -101.87846 | 40010 ft | 393 kts | 309° |
| 2026-04-30 22:38 | 32.95573 | -101.96092 | 40013 ft | 393 kts | 309° |
| 2026-04-30 22:39 | 33.01917 | -102.02283 | 40017 ft | 392 kts | 309° |
| 2026-04-30 22:40 | 33.14529 | -102.14627 | 40023 ft | 391 kts | 309° |
| 2026-04-30 22:41 | 33.25042 | -102.24953 | 40025 ft | 391 kts | 309° |
| 2026-04-30 22:43 | 33.37587 | -102.37320 | 40026 ft | 393 kts | 309° |
| 2026-04-30 22:44 | 33.45986 | -102.45624 | 40032 ft | 393 kts | 308° |
| 2026-04-30 22:45 | 33.58576 | -102.58114 | 40035 ft | 392 kts | 308° |
| 2026-04-30 22:47 | 33.71228 | -102.70715 | 40030 ft | 393 kts | 308° |
| 2026-04-30 22:48 | 33.79625 | -102.79103 | 40025 ft | 391 kts | 308° |
| 2026-04-30 22:49 | 33.92159 | -102.91670 | 40027 ft | 392 kts | 308° |
| 2026-04-30 22:51 | 34.04754 | -103.04349 | 40028 ft | 395 kts | 308° |
| 2026-04-30 22:52 | 34.11050 | -103.10705 | 40033 ft | 394 kts | 307° |
| 2026-04-30 22:53 | 34.19508 | -103.19263 | 40038 ft | 394 kts | 307° |
| 2026-04-30 22:53 | 34.25824 | -103.25672 | 40043 ft | 396 kts | 308° |
| 2026-04-30 22:55 | 34.36366 | -103.36395 | 40042 ft | 398 kts | 306° |
| 2026-04-30 22:56 | 34.44795 | -103.44992 | 40044 ft | 397 kts | 307° |
| 2026-04-30 22:57 | 34.55332 | -103.55880 | 40045 ft | 391 kts | 302° |
| 2026-04-30 22:57 | 34.58510 | -103.60915 | 40034 ft | 369 kts | 288° |
| 2026-04-30 22:58 | 34.59906 | -103.64660 | 40045 ft | 357 kts | 280° |
| 2026-04-30 22:59 | 34.64677 | -103.83849 | 40044 ft | 357 kts | 278° |